createdAt,value
2024-01-28T00:00:54.262Z,5.38
2024-01-28T00:03:22.912Z,6.97
2024-01-28T00:05:55.060Z,4.68
2024-01-28T00:08:25.201Z,5.63
2024-01-28T00:10:54.261Z,6.10
2024-01-28T00:13:24.948Z,6.57
2024-01-28T00:15:56.466Z,6.05
2024-01-28T00:18:26.698Z,5.57
2024-01-28T00:20:55.641Z,6.07
2024-01-28T00:23:22.267Z,5.60
2024-01-28T00:25:48.866Z,5.72
2024-01-28T00:28:18.675Z,5.38
2024-01-28T00:30:45.358Z,5.43
2024-01-28T00:33:12.556Z,5.88
2024-01-28T00:35:39.249Z,5.10
2024-01-28T00:38:05.968Z,4.53
2024-01-28T00:40:35.024Z,4.60
2024-01-28T00:43:03.529Z,5.00
2024-01-28T00:45:36.973Z,4.78
2024-01-28T00:48:04.032Z,4.45
2024-01-28T00:50:33.205Z,4.65
2024-01-28T00:53:01.129Z,4.70
2024-01-28T00:55:32.205Z,5.15
2024-01-28T00:58:00.580Z,5.22
2024-01-28T01:00:37.656Z,5.05
2024-01-28T01:03:04.951Z,4.75
2024-01-28T01:05:35.190Z,5.68
2024-01-28T01:08:09.730Z,4.88
2024-01-28T01:10:38.275Z,4.80
2024-01-28T01:13:12.489Z,4.50
2024-01-28T01:15:39.189Z,4.97
2024-01-28T01:18:08.847Z,4.70
2024-01-28T01:20:37.945Z,4.93
2024-01-28T01:23:06.035Z,4.75
2024-01-28T01:25:32.701Z,5.13
2024-01-28T01:27:59.822Z,4.97
2024-01-28T01:30:35.935Z,4.57
2024-01-28T01:33:04.101Z,4.80
2024-01-28T01:35:30.838Z,4.60
2024-01-28T01:37:59.754Z,4.60
2024-01-28T01:40:26.400Z,4.90
2024-01-28T01:42:55.563Z,4.80
2024-01-28T01:45:22.612Z,3.90
2024-01-28T01:47:54.897Z,4.57
2024-01-28T01:50:25.322Z,4.50
2024-01-28T01:52:55.407Z,4.78
2024-01-28T01:55:22.296Z,4.13
2024-01-28T01:57:54.484Z,4.25
2024-01-28T02:00:23.986Z,3.92
2024-01-28T02:02:53.341Z,5.43
2024-01-28T02:05:22.443Z,4.60
2024-01-28T02:07:51.873Z,4.85
2024-01-28T02:10:18.553Z,4.57
2024-01-28T02:12:46.290Z,4.13
2024-01-28T02:15:21.001Z,4.72
2024-01-28T02:17:56.831Z,4.80
2024-01-28T02:20:23.942Z,4.05
2024-01-28T02:22:50.550Z,4.78
2024-01-28T02:25:17.354Z,4.85
2024-01-28T02:27:46.555Z,4.53
2024-01-28T02:30:14.612Z,4.50
2024-01-28T02:32:52.393Z,4.30
2024-01-28T02:35:22.206Z,5.18
2024-01-28T02:37:49.053Z,4.55
2024-01-28T02:40:15.803Z,4.00
2024-01-28T02:42:42.598Z,3.90
2024-01-28T02:45:11.534Z,3.60
2024-01-28T02:47:39.307Z,4.00
2024-01-28T02:50:06.506Z,3.63
2024-01-28T02:52:38.584Z,4.65
2024-01-28T02:55:13.018Z,4.10
2024-01-28T02:57:39.810Z,3.60
2024-01-28T03:00:07.523Z,3.83
2024-01-28T03:02:40.637Z,5.80
2024-01-28T03:05:12.067Z,4.50
2024-01-28T03:07:38.925Z,4.05
2024-01-28T03:10:06.649Z,4.07
2024-01-28T03:12:33.387Z,4.28
2024-01-28T03:15:01.678Z,4.38
2024-01-28T03:17:33.449Z,3.75
2024-01-28T03:20:00.171Z,4.20
2024-01-28T03:22:26.916Z,4.53
2024-01-28T03:24:58.713Z,4.47
2024-01-28T03:27:25.412Z,3.92
2024-01-28T03:29:54.822Z,3.83
2024-01-28T03:32:23.870Z,3.67
2024-01-28T03:34:50.866Z,4.10
2024-01-28T03:37:17.688Z,3.55
2024-01-28T03:39:44.688Z,5.00
2024-01-28T03:42:11.890Z,4.25
2024-01-28T03:44:38.781Z,3.20
2024-01-28T03:47:05.428Z,3.45
2024-01-28T03:49:32.086Z,3.97
2024-01-28T03:52:01.735Z,3.40
2024-01-28T03:56:59.594Z,4.00
2024-01-28T03:59:27.407Z,4.68
2024-01-28T04:01:59.328Z,4.72
2024-01-28T04:04:26.027Z,3.90
2024-01-28T04:06:53.143Z,4.90
2024-01-28T04:09:19.838Z,4.65
2024-01-28T04:11:49.329Z,4.95
2024-01-28T04:14:18.186Z,4.40
2024-01-28T04:16:47.494Z,4.85
2024-01-28T04:19:14.266Z,4.55
2024-01-28T04:21:43.199Z,5.75
2024-01-28T04:24:11.259Z,5.13
2024-01-28T04:26:38.504Z,5.28
2024-01-28T04:29:11.952Z,4.90
2024-01-28T04:31:44.695Z,4.00
2024-01-28T04:34:11.878Z,4.78
2024-01-28T04:36:46.223Z,4.63
2024-01-28T04:39:16.383Z,3.92
2024-01-28T04:41:43.076Z,3.92
2024-01-28T04:44:09.782Z,4.60
2024-01-28T04:46:37.537Z,4.90
2024-01-28T04:49:07.411Z,4.50
2024-01-28T04:51:38.856Z,5.47
2024-01-28T04:54:13.442Z,3.88
2024-01-28T04:56:40.051Z,5.03
2024-01-28T04:59:12.970Z,4.50
2024-01-28T05:01:42.288Z,6.13
2024-01-28T05:04:16.493Z,5.00
2024-01-28T05:06:46.543Z,4.07
2024-01-28T05:09:16.321Z,5.40
2024-01-28T05:11:42.996Z,4.55
2024-01-28T05:14:12.070Z,4.05
2024-01-28T05:16:38.759Z,5.32
2024-01-28T05:19:08.012Z,4.30
2024-01-28T05:21:37.913Z,3.72
2024-01-28T05:24:07.413Z,3.88
2024-01-28T05:26:37.468Z,4.55
2024-01-28T05:29:06.418Z,4.13
2024-01-28T05:31:34.044Z,5.03
2024-01-28T05:34:03.370Z,5.13
2024-01-28T05:36:30.574Z,4.20
2024-01-28T05:38:58.709Z,3.90
2024-01-28T05:41:30.296Z,5.00
2024-01-28T05:44:01.686Z,4.55
2024-01-28T05:46:30.631Z,5.20
2024-01-28T05:48:59.571Z,5.32
2024-01-28T05:51:28.126Z,4.47
2024-01-28T05:53:58.509Z,4.70
2024-01-28T05:56:27.561Z,4.22
2024-01-28T05:58:54.170Z,4.25
2024-01-28T06:01:21.879Z,4.80
2024-01-28T06:03:51.184Z,4.10
2024-01-28T06:06:23.189Z,4.32
2024-01-28T06:11:16.436Z,4.13
2024-01-28T06:13:43.087Z,4.53
2024-01-28T06:16:10.020Z,4.10
2024-01-28T06:18:44.458Z,5.03
2024-01-28T06:21:14.493Z,4.10
2024-01-28T06:23:46.398Z,3.95
2024-01-28T06:26:22.670Z,4.35
2024-01-28T06:28:50.178Z,4.38
2024-01-28T06:31:19.149Z,4.90
2024-01-28T06:33:45.827Z,4.88
2024-01-28T06:36:24.019Z,4.53
2024-01-28T06:38:50.785Z,4.72
2024-01-28T06:41:17.885Z,4.60
2024-01-28T06:43:47.014Z,4.40
2024-01-28T06:46:20.114Z,4.63
2024-01-28T06:48:49.698Z,5.25
2024-01-28T06:51:16.421Z,4.80
2024-01-28T06:53:49.794Z,5.13
2024-01-28T06:56:27.598Z,4.53
2024-01-28T06:58:58.994Z,5.15
2024-01-28T07:01:28.135Z,5.88
2024-01-28T07:03:57.868Z,4.95
2024-01-28T07:06:26.767Z,5.00
2024-01-28T07:08:55.750Z,4.82
2024-01-28T07:11:26.365Z,5.22
2024-01-28T07:13:54.890Z,4.90
2024-01-28T07:16:27.020Z,6.35
2024-01-28T07:18:53.767Z,4.63
2024-01-28T07:21:23.442Z,4.80
2024-01-28T07:26:23.087Z,4.18
2024-01-28T07:28:52.969Z,4.50
2024-01-28T07:31:23.081Z,4.10
2024-01-28T07:33:53.586Z,5.05
2024-01-28T07:36:22.825Z,4.25
2024-01-28T07:38:51.667Z,4.40
2024-01-28T07:41:18.281Z,4.65
2024-01-28T07:43:47.256Z,4.97
2024-01-28T07:46:16.826Z,5.38
2024-01-28T07:48:51.135Z,5.95
2024-01-28T07:51:17.882Z,4.85
2024-01-28T07:53:47.660Z,4.97
2024-01-28T07:56:17.263Z,4.70
2024-01-28T07:58:43.942Z,4.57
2024-01-28T08:01:10.702Z,4.72
2024-01-28T08:03:37.567Z,4.70
2024-01-28T08:06:05.575Z,4.75
2024-01-28T08:08:34.072Z,4.63
2024-01-28T08:11:03.990Z,4.20
2024-01-28T08:13:30.641Z,5.25
2024-01-28T08:16:02.720Z,4.75
2024-01-28T08:18:29.553Z,5.00
2024-01-28T08:20:57.172Z,6.53
2024-01-28T08:23:23.822Z,6.22
2024-01-28T08:25:53.060Z,7.00
2024-01-28T08:28:19.873Z,6.40
2024-01-28T08:30:47.202Z,5.70
2024-01-28T08:33:14.110Z,6.30
2024-01-28T08:35:42.528Z,5.97
2024-01-28T08:38:09.652Z,5.20
2024-01-28T08:40:36.251Z,5.57
2024-01-28T08:43:05.428Z,5.63
2024-01-28T08:45:37.183Z,6.38
2024-01-28T08:48:07.082Z,6.03
2024-01-28T08:50:33.848Z,5.82
2024-01-28T08:53:00.892Z,6.70
2024-01-28T08:55:27.570Z,6.88
2024-01-28T08:57:54.299Z,5.22
2024-01-28T09:00:21.354Z,4.88
2024-01-28T09:02:48.193Z,5.45
2024-01-28T09:05:15.035Z,5.28
2024-01-28T09:07:42.911Z,5.63
2024-01-28T09:10:10.075Z,5.20
2024-01-28T09:12:36.818Z,5.82
2024-01-28T09:15:03.748Z,5.00
2024-01-28T09:17:30.439Z,5.97
2024-01-28T09:19:57.574Z,5.45
2024-01-28T09:22:26.580Z,6.03
2024-01-28T09:24:53.218Z,4.68
2024-01-28T09:27:23.879Z,5.25
2024-01-28T09:29:51.464Z,4.97
2024-01-28T09:32:21.176Z,5.18
2024-01-28T09:34:48.346Z,4.68
2024-01-28T09:37:15.160Z,4.40
2024-01-28T09:39:41.842Z,5.50
2024-01-28T09:42:29.789Z,5.38
2024-01-28T09:44:59.314Z,3.95
2024-01-28T09:47:26.897Z,4.78
2024-01-28T09:49:55.826Z,4.45
2024-01-28T09:52:22.640Z,4.85
2024-01-28T09:54:49.365Z,5.18
2024-01-28T09:57:16.639Z,4.80
2024-01-28T09:59:44.822Z,4.70
2024-01-28T10:02:13.206Z,5.45
2024-01-28T10:04:41.415Z,4.80
2024-01-28T10:07:10.689Z,4.72
2024-01-28T10:09:38.282Z,4.35
2024-01-28T10:12:05.478Z,5.50
2024-01-28T10:14:32.106Z,4.85
2024-01-28T10:16:59.000Z,5.70
2024-01-28T10:19:26.493Z,5.95
2024-01-28T10:21:53.424Z,4.78
2024-01-28T10:24:21.757Z,5.15
2024-01-28T10:26:48.457Z,5.35
2024-01-28T10:29:18.527Z,5.53
2024-01-28T10:31:45.346Z,5.32
2024-01-28T10:34:12.276Z,4.85
2024-01-28T10:36:41.417Z,4.97
2024-01-28T10:39:14.781Z,4.43
2024-01-28T10:41:45.172Z,5.18
2024-01-28T10:44:13.765Z,5.65
2024-01-28T10:46:42.697Z,5.75
2024-01-28T10:49:13.795Z,5.47
2024-01-28T10:51:41.284Z,5.07
2024-01-28T10:54:09.343Z,4.88
2024-01-28T10:56:41.794Z,4.32
2024-01-28T11:01:38.380Z,4.68
2024-01-28T11:04:06.673Z,4.78
2024-01-28T11:06:34.132Z,4.45
2024-01-28T11:09:01.802Z,5.38
2024-01-28T11:11:28.647Z,4.95
2024-01-28T11:13:56.970Z,5.60
2024-01-28T11:16:23.663Z,4.57
2024-01-28T11:19:05.587Z,4.97
2024-01-28T11:21:34.771Z,4.80
2024-01-28T11:24:07.586Z,4.80
2024-01-28T11:26:42.218Z,5.05
2024-01-28T11:29:13.509Z,4.80
2024-01-28T11:31:41.783Z,5.60
2024-01-28T11:34:21.755Z,4.78
2024-01-28T11:36:52.628Z,5.55
2024-01-28T11:39:43.742Z,5.00
2024-01-28T11:42:10.800Z,5.32
2024-01-28T11:44:41.626Z,4.95
2024-01-28T11:47:18.074Z,5.13
2024-01-28T11:49:45.109Z,4.78
2024-01-28T11:52:12.600Z,5.93
2024-01-28T11:54:39.426Z,4.85
2024-01-28T11:57:06.994Z,5.43
2024-01-28T11:59:35.066Z,4.97
2024-01-28T12:02:02.801Z,4.93
2024-01-28T12:04:29.626Z,4.65
2024-01-28T12:06:56.562Z,4.68
2024-01-28T12:09:23.465Z,4.55
2024-01-28T12:11:51.600Z,4.38
2024-01-28T12:14:21.290Z,4.65
2024-01-28T12:16:48.363Z,4.90
2024-01-28T12:19:15.559Z,5.20
2024-01-28T12:21:43.600Z,4.55
2024-01-28T12:24:10.994Z,6.05
2024-01-28T12:26:37.708Z,5.07
2024-01-28T12:29:04.415Z,5.13
2024-01-28T12:31:34.310Z,4.90
2024-01-28T12:34:01.286Z,4.72
2024-01-28T12:36:28.056Z,5.07
2024-01-28T12:38:54.931Z,4.68
2024-01-28T12:41:23.689Z,4.82
2024-01-28T12:43:54.927Z,4.20
2024-01-28T12:46:21.666Z,4.25
2024-01-28T12:48:48.453Z,4.25
2024-01-28T12:51:15.696Z,4.10
2024-01-28T12:53:42.606Z,3.70
2024-01-28T12:56:09.303Z,4.78
2024-01-28T12:58:36.100Z,3.88
2024-01-28T13:01:05.094Z,4.30
2024-01-28T13:03:32.117Z,4.28
2024-01-28T13:05:58.853Z,4.72
2024-01-28T13:08:25.599Z,4.80
2024-01-28T13:10:52.308Z,3.78
2024-01-28T13:13:20.253Z,3.80
2024-01-28T13:15:47.467Z,4.22
2024-01-28T13:18:26.025Z,4.07
2024-01-28T13:21:00.236Z,4.20
2024-01-28T13:23:29.410Z,4.00
2024-01-28T13:25:56.173Z,4.07
2024-01-28T13:28:22.922Z,4.32
2024-01-28T13:30:49.897Z,3.92
2024-01-28T13:33:16.724Z,3.55
2024-01-28T13:35:45.724Z,3.83
2024-01-28T13:38:14.812Z,4.15
2024-01-28T13:40:43.238Z,4.43
2024-01-28T13:43:12.348Z,4.40
2024-01-28T13:45:39.055Z,4.68
2024-01-28T13:48:07.284Z,3.55
2024-01-28T13:50:34.092Z,4.07
2024-01-28T13:53:00.802Z,4.15
2024-01-28T13:55:27.458Z,3.88
2024-01-28T13:57:54.289Z,3.95
2024-01-28T14:00:21.087Z,3.13
2024-01-28T14:02:47.766Z,3.80
2024-01-28T14:05:14.683Z,3.95
2024-01-28T14:07:41.572Z,3.80
2024-01-28T14:10:09.154Z,3.85
2024-01-28T14:12:36.020Z,3.63
2024-01-28T14:15:02.705Z,3.45
2024-01-28T14:17:29.659Z,3.85
2024-01-28T14:19:56.376Z,3.70
2024-01-28T14:22:23.094Z,3.53
2024-01-28T14:24:49.792Z,3.67
2024-01-28T14:27:16.538Z,3.20
2024-01-28T14:29:43.229Z,3.58
2024-01-28T14:32:12.439Z,3.03
2024-01-28T14:34:39.992Z,3.33
2024-01-28T14:37:07.347Z,3.28
2024-01-28T14:39:34.062Z,3.22
2024-01-28T14:42:04.110Z,3.17
2024-01-28T14:44:30.773Z,3.10
2024-01-28T14:47:01.196Z,2.97
2024-01-28T14:49:30.422Z,3.10
2024-01-28T14:51:57.174Z,2.85
2024-01-28T14:54:23.953Z,3.13
2024-01-28T14:56:52.015Z,3.15
2024-01-28T14:59:18.694Z,3.28
2024-01-28T15:01:45.358Z,3.25
2024-01-28T15:04:12.194Z,3.35
2024-01-28T15:06:39.548Z,3.03
2024-01-28T15:09:08.928Z,2.78
2024-01-28T15:11:37.122Z,2.97
2024-01-28T15:14:04.020Z,3.17
2024-01-28T15:16:30.822Z,2.78
2024-01-28T15:18:57.698Z,3.15
2024-01-28T15:21:27.049Z,2.78
2024-01-28T15:23:53.817Z,2.95
2024-01-28T15:26:21.244Z,2.83
2024-01-28T15:28:47.902Z,3.47
2024-01-28T15:31:14.821Z,3.28
2024-01-28T15:33:41.642Z,3.30
2024-01-28T15:36:12.536Z,3.10
2024-01-28T15:38:45.014Z,3.40
2024-01-28T15:41:12.259Z,3.35
2024-01-28T15:43:38.951Z,3.72
2024-01-28T15:46:08.712Z,3.53
2024-01-28T15:48:36.935Z,3.38
2024-01-28T15:51:04.933Z,3.47
2024-01-28T15:53:31.947Z,3.20
2024-01-28T15:55:58.902Z,3.13
2024-01-28T15:58:26.396Z,3.28
2024-01-28T16:00:55.030Z,3.70
2024-01-28T16:03:22.159Z,3.97
2024-01-28T16:05:48.844Z,3.58
2024-01-28T16:08:15.847Z,3.72
2024-01-28T16:10:42.516Z,3.67
2024-01-28T16:13:09.346Z,3.97
2024-01-28T16:15:38.284Z,4.38
2024-01-28T16:18:06.658Z,4.20
2024-01-28T16:20:33.492Z,4.72
2024-01-28T16:23:00.895Z,4.78
2024-01-28T16:25:31.835Z,5.10
2024-01-28T16:27:59.588Z,4.57
2024-01-28T16:30:29.229Z,4.65
2024-01-28T16:32:56.495Z,4.97
2024-01-28T16:35:24.230Z,5.00
2024-01-28T16:37:53.486Z,4.47
2024-01-28T16:40:20.380Z,4.90
2024-01-28T16:42:48.002Z,4.70
2024-01-28T16:45:18.167Z,4.25
2024-01-28T16:47:46.211Z,4.97
2024-01-28T16:50:14.003Z,4.47
2024-01-28T16:52:41.419Z,4.57
2024-01-28T16:55:08.945Z,4.78
2024-01-28T16:57:36.239Z,5.22
2024-01-28T17:00:03.564Z,4.93
2024-01-28T17:02:30.288Z,5.10
2024-01-28T17:04:58.046Z,4.70
2024-01-28T17:07:25.643Z,5.03
2024-01-28T17:09:52.356Z,4.38
2024-01-28T17:12:19.050Z,4.60
2024-01-28T17:14:45.698Z,4.18
2024-01-28T17:17:15.245Z,4.55
2024-01-28T17:19:41.999Z,4.50
2024-01-28T17:22:09.754Z,4.38
2024-01-28T17:24:38.694Z,4.18
2024-01-28T17:27:05.768Z,4.20
2024-01-28T17:29:33.342Z,3.53
2024-01-28T17:32:02.382Z,3.88
2024-01-28T17:34:29.201Z,3.85
2024-01-28T17:36:58.003Z,3.92
2024-01-28T17:39:29.340Z,3.40
2024-01-28T17:42:00.830Z,3.78
2024-01-28T17:44:28.538Z,3.72
2024-01-28T17:46:57.690Z,3.42
2024-01-28T17:49:24.419Z,4.15
2024-01-28T17:52:00.382Z,3.70
2024-01-28T17:54:29.868Z,3.80
2024-01-28T17:56:56.543Z,4.18
2024-01-28T17:59:23.223Z,3.90
2024-01-28T18:01:49.943Z,3.95
2024-01-28T18:04:18.634Z,4.20
2024-01-28T18:06:49.087Z,4.45
2024-01-28T18:09:18.880Z,5.00
2024-01-28T18:11:54.777Z,4.38
2024-01-28T18:14:25.908Z,3.95
2024-01-28T18:16:55.866Z,3.95
2024-01-28T18:19:24.661Z,4.50
2024-01-28T18:21:51.510Z,3.58
2024-01-28T18:24:19.282Z,3.83
2024-01-28T18:26:46.778Z,4.57
2024-01-28T18:29:15.753Z,3.80
2024-01-28T18:31:44.358Z,3.80
2024-01-28T18:34:12.417Z,4.07
2024-01-28T18:36:41.352Z,4.68
2024-01-28T18:39:10.526Z,5.65
2024-01-28T18:41:41.122Z,5.47
2024-01-28T18:44:09.181Z,4.72
2024-01-28T18:46:35.877Z,5.30
2024-01-28T18:49:02.664Z,5.28
2024-01-28T18:51:32.201Z,5.30
2024-01-28T18:54:00.167Z,4.97
2024-01-28T18:56:26.944Z,4.43
2024-01-28T18:58:53.641Z,4.40
2024-01-28T19:03:54.196Z,3.78
2024-01-28T19:06:24.023Z,4.53
2024-01-28T19:08:50.957Z,3.88
2024-01-28T19:11:21.998Z,3.53
2024-01-28T19:13:49.151Z,4.18
2024-01-28T19:16:17.608Z,3.35
2024-01-28T19:18:49.278Z,3.92
2024-01-28T19:21:16.090Z,3.25
2024-01-28T19:23:43.848Z,4.05
2024-01-28T19:26:12.414Z,4.03
2024-01-28T19:28:39.202Z,3.60
2024-01-28T19:31:06.012Z,3.58
2024-01-28T19:33:34.916Z,3.20
2024-01-28T19:36:06.202Z,3.05
2024-01-28T19:38:35.890Z,3.85
2024-01-28T19:41:06.014Z,3.22
2024-01-28T19:43:35.327Z,3.28
2024-01-28T19:46:04.696Z,3.72
2024-01-28T19:48:31.577Z,3.58
2024-01-28T19:51:00.610Z,2.83
2024-01-28T19:53:31.860Z,3.25
2024-01-28T19:56:03.905Z,3.38
2024-01-28T19:58:30.548Z,3.15
2024-01-28T20:00:59.945Z,2.65
2024-01-28T20:03:30.236Z,3.13
2024-01-28T20:06:02.265Z,3.03
2024-01-28T20:08:30.938Z,3.25
2024-01-28T20:10:57.843Z,2.95
2024-01-28T20:13:24.617Z,3.10
2024-01-28T20:15:52.195Z,2.90
2024-01-28T20:20:51.684Z,2.88
2024-01-28T20:23:20.872Z,3.42
2024-01-28T20:25:53.640Z,3.13
2024-01-28T20:28:27.969Z,3.40
2024-01-28T20:30:54.843Z,2.95
2024-01-28T20:33:22.185Z,3.00
2024-01-28T20:35:51.620Z,3.20
2024-01-28T20:38:19.396Z,3.15
2024-01-28T20:40:46.441Z,3.50
2024-01-28T20:43:19.396Z,3.05
2024-01-28T20:45:46.135Z,2.95
2024-01-28T20:48:12.914Z,3.60
2024-01-28T20:50:39.577Z,3.40
2024-01-28T20:53:10.167Z,3.35
2024-01-28T20:55:41.980Z,3.05
2024-01-28T20:58:09.366Z,3.38
2024-01-28T21:00:36.007Z,2.88
2024-01-28T21:03:03.278Z,3.40
2024-01-28T21:05:35.711Z,3.30
2024-01-28T21:08:02.377Z,2.80
2024-01-28T21:10:29.025Z,3.58
2024-01-28T21:12:58.094Z,3.50
2024-01-28T21:15:30.925Z,2.85
2024-01-28T21:18:00.858Z,3.15
2024-01-28T21:20:30.924Z,2.95
2024-01-28T21:22:59.915Z,3.53
2024-01-28T21:25:27.963Z,3.13
2024-01-28T21:27:54.655Z,3.50
2024-01-28T21:30:24.204Z,3.25
2024-01-28T21:32:51.108Z,2.90
2024-01-28T21:35:19.585Z,3.10
2024-01-28T21:37:50.736Z,3.17
2024-01-28T21:40:20.112Z,2.67
2024-01-28T21:42:46.998Z,3.03
2024-01-28T21:45:14.771Z,3.42
2024-01-28T21:47:43.119Z,3.33
2024-01-28T21:50:19.733Z,3.47
2024-01-28T21:52:52.023Z,3.35
2024-01-28T21:55:21.770Z,2.78
2024-01-28T21:57:54.527Z,3.60
2024-01-28T22:00:30.750Z,4.03
2024-01-28T22:03:05.796Z,3.00
2024-01-28T22:05:37.428Z,3.60
2024-01-28T22:08:07.324Z,3.45
2024-01-28T22:10:38.795Z,3.50
2024-01-28T22:13:05.446Z,3.72
2024-01-28T22:15:34.369Z,4.65
2024-01-28T22:18:01.205Z,3.60
2024-01-28T22:20:30.093Z,4.03
2024-01-28T22:22:56.850Z,4.53
2024-01-28T22:25:29.392Z,4.20
2024-01-28T22:27:56.073Z,4.32
2024-01-28T22:30:24.127Z,4.20
2024-01-28T22:32:51.295Z,4.47
2024-01-28T22:35:20.803Z,4.45
2024-01-28T22:37:52.895Z,3.92
2024-01-28T22:42:50.504Z,4.03
2024-01-28T22:45:20.219Z,4.45
2024-01-28T22:47:52.364Z,4.70
2024-01-28T22:50:22.611Z,4.25
2024-01-28T22:52:56.308Z,4.57
2024-01-28T22:55:25.178Z,4.60
2024-01-28T22:57:53.167Z,4.45
2024-01-28T23:00:27.354Z,4.53
2024-01-28T23:02:57.606Z,3.78
2024-01-28T23:05:27.036Z,4.05
2024-01-28T23:07:53.854Z,4.25
2024-01-28T23:10:23.336Z,4.10
2024-01-28T23:12:53.123Z,3.92
2024-01-28T23:15:24.804Z,3.83
2024-01-28T23:17:54.044Z,3.87
2024-01-28T23:20:23.612Z,4.35
2024-01-28T23:22:56.112Z,4.22
2024-01-28T23:25:23.786Z,4.35
2024-01-28T23:27:50.515Z,4.22
2024-01-28T23:30:17.614Z,4.05
2024-01-28T23:32:47.046Z,3.90
2024-01-28T23:35:15.216Z,3.58
2024-01-28T23:37:44.247Z,3.53
2024-01-28T23:40:14.886Z,4.03
2024-01-28T23:42:45.289Z,3.78
2024-01-28T23:45:14.552Z,3.75
2024-01-28T23:47:43.733Z,3.40
2024-01-28T23:50:12.692Z,3.70
2024-01-28T23:52:40.029Z,4.00
2024-01-28T23:55:07.941Z,3.95
2024-01-28T23:57:37.256Z,3.58
